^^
Saratoga-Weather Station Historical Data
Daily Summary for December 10, 2021 Units:  Metric    English   Both
Daily Weekly Monthly Yearly Custom
  High: Low: Average:
Temperature: 2.3 °C °C 0.8 °C
Dew Point: 1.4 °C °C 0.3 °C
Humidity: 96% % 53%
Wind Speed: 14.3km/h km/h 1.6km/h
Wind Gust: 17.7km/h - -
Wind- - ENE
Pressure: 1002.4 hPa 0.0 hPa -
Precipitation: 0.0 mm    
Historical Graphs
 
 
Tabular Data for December 10, 2021
Time Temperature Dew Point Pressure Wind Wind Speed Wind Gust Humidity Rainfall Rate (Hourly) solar
00:04 2.2 °C 1.2 °C 1002.4 hPa ENE 4.7 km/h 6.4 km/h 93% 0.0 mm 0 W/m2
00:09 2.2 °C 1.3 °C 1002.4 hPa ENE 4.7 km/h 4.8 km/h 94% 0.0 mm 0 W/m2
00:14 2.2 °C 1.3 °C 1002.0 hPa Calm   6.4 km/h 94% 0.0 mm 0 W/m2
00:19 2.2 °C 1.3 °C 1002.0 hPa ENE 4.7 km/h 6.4 km/h 94% 0.0 mm 0 W/m2
00:24 2.2 °C 1.3 °C 1002.0 hPa East 3.2 km/h 4.8 km/h 94% 0.0 mm 0 W/m2
00:29 2.3 °C 1.4 °C 1001.7 hPa ENE 1.4 km/h 6.4 km/h 94% 0.0 mm 0 W/m2
00:34 2.2 °C 1.3 °C 1001.7 hPa ENE 4.7 km/h 6.4 km/h 94% 0.0 mm 0 W/m2
00:39 2.2 °C 1.2 °C 1001.4 hPa ENE 1.4 km/h 6.4 km/h 93% 0.0 mm 0 W/m2
00:44 2.1 °C 1.1 °C 1001.4 hPa NE 3.2 km/h 6.4 km/h 93% 0.0 mm 0 W/m2
00:49 2.1 °C 1.1 °C 1001.0 hPa NNE 4.7 km/h 4.8 km/h 93% 0.0 mm 0 W/m2
00:54 2.1 °C 1.1 °C 1001.0 hPa East 4.7 km/h 4.8 km/h 93% 0.0 mm 0 W/m2
00:59 2 °C 1.1 °C 1000.7 hPa ENE 3.2 km/h 4.8 km/h 94% 0.0 mm 0 W/m2
01:04 1.9 °C 1 °C 1000.3 hPa NE 1.4 km/h 3.2 km/h 94% 0.0 mm 0 W/m2
01:09 1.9 °C 1 °C 1000.3 hPa ESE 1.4 km/h 3.2 km/h 94% 0.0 mm 0 W/m2
01:14 1.8 °C 0.9 °C 1000.3 hPa East 1.4 km/h 3.2 km/h 94% 0.0 mm 0 W/m2
01:19 1.8 °C 0.9 °C 1000.3 hPa Calm   3.2 km/h 94% 0.0 mm 0 W/m2
01:24 1.8 °C 0.9 °C 1000.0 hPa ENE 3.2 km/h 6.4 km/h 94% 0.0 mm 0 W/m2
01:29 1.8 °C 0.9 °C 999.7 hPa SE 3.2 km/h 4.8 km/h 94% 0.0 mm 0 W/m2
01:34 1.8 °C 0.9 °C 999.7 hPa Calm   4.8 km/h 94% 0.0 mm 0 W/m2
01:55 1.7 °C 0.8 °C 999.3 hPa Calm     94% 0.0 mm 0 W/m2
02:00 1.7 °C 0.8 °C 999.0 hPa ENE 1.4 km/h 4.8 km/h 94% 0.0 mm 0 W/m2
02:05 1.7 °C 0.8 °C 998.6 hPa NE 4.7 km/h 4.8 km/h 94% 0.0 mm 0 W/m2
02:10 1.7 °C 0.8 °C 998.6 hPa NNE 1.4 km/h 1.6 km/h 94% 0.0 mm 0 W/m2
02:15 1.6 °C 0.7 °C 998.6 hPa ENE 1.4 km/h 4.8 km/h 94% 0.0 mm 0 W/m2
02:20 1.4 °C 0.5 °C 998.6 hPa Calm     94% 0.0 mm 0 W/m2
02:25 1.3 °C 0.4 °C 998.3 hPa Calm   4.8 km/h 94% 0.0 mm 0 W/m2
02:30 1.2 °C 0.3 °C 998.3 hPa Calm     94% 0.0 mm 0 W/m2
02:35 1.2 °C 0.3 °C 998.3 hPa Calm     94% 0.0 mm 0 W/m2
02:40 1 °C 0.1 °C 998.0 hPa Calm     94% 0.0 mm 0 W/m2
02:45 0.8 °C -0.1 °C 998.0 hPa Calm     94% 0.0 mm 0 W/m2
02:50 0.8 °C -0.1 °C 998.0 hPa Calm   1.6 km/h 94% 0.0 mm 0 W/m2
02:55 0.8 °C -0.1 °C 997.6 hPa ENE 6.4 km/h 6.4 km/h 94% 0.0 mm 0 W/m2
03:00 1.1 °C 0.4 °C 997.6 hPa ESE 4.7 km/h 4.8 km/h 95% 0.0 mm 0 W/m2
03:05 1.2 °C 0.5 °C 997.3 hPa ENE 9.7 km/h 14.5 km/h 95% 0.0 mm 0 W/m2
03:10 1.3 °C 0.6 °C 997.3 hPa East 11.1 km/h 12.9 km/h 95% 0.0 mm 0 W/m2
03:15 1.4 °C 0.7 °C 997.3 hPa SE 4.7 km/h 6.4 km/h 95% 0.0 mm 0 W/m2
03:20 1.4 °C 0.7 °C 997.3 hPa ENE 3.2 km/h 12.9 km/h 95% 0.0 mm 0 W/m2
03:25 1.4 °C 0.7 °C 997.3 hPa ENE 1.4 km/h 12.9 km/h 95% 0.0 mm 0 W/m2
03:30 1.5 °C 0.8 °C 997.0 hPa ENE 4.7 km/h 16.1 km/h 95% 0.0 mm 0 W/m2
03:35 1.6 °C 0.9 °C 997.0 hPa East 4.7 km/h 17.7 km/h 95% 0.0 mm 0 W/m2
03:40 1.6 °C 0.9 °C 997.0 hPa ENE 3.2 km/h 16.1 km/h 95% 0.0 mm 0 W/m2
03:45 1.6 °C 0.9 °C 996.6 hPa ENE 4.7 km/h 17.7 km/h 95% 0.0 mm 0 W/m2
03:50 1.7 °C 0.8 °C 996.6 hPa East 4.7 km/h 14.5 km/h 94% 0.0 mm 0 W/m2
03:55 1.7 °C 0.8 °C 996.3 hPa NE 6.4 km/h 12.9 km/h 94% 0.0 mm 0 W/m2
04:00 1.7 °C 0.8 °C 996.3 hPa NE 7.9 km/h 9.7 km/h 94% 0.0 mm 0 W/m2
04:20 1.6 °C 0.7 °C 995.9 hPa ENE 4.7 km/h 11.3 km/h 94% 0.0 mm 0 W/m2
04:25 1.6 °C 0.7 °C 995.6 hPa East 6.4 km/h 11.3 km/h 94% 0.0 mm 0 W/m2
04:30 1.6 °C 0.7 °C 995.6 hPa NE 4.7 km/h 6.4 km/h 94% 0.0 mm 0 W/m2
04:35 1.6 °C 0.7 °C 995.3 hPa ENE 6.4 km/h 9.7 km/h 94% 0.0 mm 0 W/m2
04:41 1.6 °C 0.7 °C 995.3 hPa East 14.3 km/h 14.5 km/h 94% 0.0 mm 0 W/m2
04:46 1.6 °C 0.7 °C 995.3 hPa ENE 6.4 km/h 11.3 km/h 94% 0.0 mm 0 W/m2
04:51 1.7 °C 0.8 °C 994.9 hPa ENE 4.7 km/h 8 km/h 94% 0.0 mm 0 W/m2
05:07 1.7 °C 0.7 °C 994.6 hPa East 3.2 km/h 9.7 km/h 93% 0.0 mm 0 W/m2
05:12 1.7 °C 0.7 °C 994.2 hPa SE 4.7 km/h 12.9 km/h 93% 0.0 mm 0 W/m2
05:17 1.7 °C 0.7 °C 994.2 hPa ENE 6.4 km/h 11.3 km/h 93% 0.0 mm 0 W/m2
05:22 1.8 °C 0.8 °C 994.2 hPa SE 4.7 km/h 12.9 km/h 93% 0.0 mm 0 W/m2
05:27 1.8 °C 0.8 °C 993.9 hPa East 1.4 km/h 6.4 km/h 93% 0.0 mm 0 W/m2
05:32 1.8 °C 0.8 °C 993.9 hPa East 1.4 km/h 11.3 km/h 93% 0.0 mm 0 W/m2
05:37 1.8 °C 0.8 °C 993.6 hPa East 1.4 km/h 3.2 km/h 93% 0.0 mm 0 W/m2
05:42 1.8 °C 0.8 °C 993.6 hPa East 1.4 km/h 4.8 km/h 93% 0.0 mm 0 W/m2
05:47 1.8 °C 0.8 °C 993.6 hPa Calm   6.4 km/h 93% 0.0 mm 0 W/m2
05:52 1.8 °C 0.8 °C 993.2 hPa East 3.2 km/h 6.4 km/h 93% 0.0 mm 0 W/m2
05:57 1.8 °C 0.8 °C 993.2 hPa ESE 1.4 km/h 6.4 km/h 93% 0.0 mm 0 W/m2
06:02 1.8 °C 0.6 °C 993.2 hPa East 4.7 km/h 6.4 km/h 92% 0.0 mm 0 W/m2
06:07 1.8 °C 0.6 °C 992.9 hPa ENE 4.7 km/h 4.8 km/h 92% 0.0 mm 0 W/m2
06:12 1.8 °C 0.6 °C 992.9 hPa East 3.2 km/h 4.8 km/h 92% 0.0 mm 0 W/m2
06:17 1.7 °C 0.5 °C 992.9 hPa ENE 1.4 km/h 4.8 km/h 92% 0.0 mm 0 W/m2
06:22 1.6 °C 0.6 °C 992.9 hPa East 3.2 km/h 6.4 km/h 93% 0.0 mm 0 W/m2
06:27 1.6 °C 0.6 °C 992.9 hPa East 3.2 km/h 4.8 km/h 93% 0.0 mm 0 W/m2
06:32 1.4 °C 0.4 °C 992.5 hPa East 3.2 km/h 4.8 km/h 93% 0.2 mm 0 W/m2
06:37 1.4 °C 0.4 °C 992.5 hPa East 1.4 km/h 6.4 km/h 93% 0.2 mm 0 W/m2
06:42 1.3 °C 0.3 °C 992.5 hPa East 3.2 km/h 9.7 km/h 93% 0.2 mm 0 W/m2
06:47 1.2 °C 0.2 °C 992.5 hPa East 1.4 km/h 3.2 km/h 93% 0.2 mm 0 W/m2
06:52 1.1 °C 0.1 °C 992.2 hPa ESE 4.7 km/h 6.4 km/h 93% 0.2 mm 0 W/m2
06:57 1 °C 0.1 °C 992.2 hPa East 3.2 km/h 4.8 km/h 94% 0.2 mm 0 W/m2
07:02 0.8 °C -0.1 °C 991.9 hPa ESE 6.4 km/h 6.4 km/h 94% 0.2 mm 0 W/m2
07:07 0.8 °C -0.1 °C 991.9 hPa ENE 1.4 km/h 3.2 km/h 94% 0.2 mm 0 W/m2
07:12 0.7 °C -0.2 °C 991.9 hPa East 1.4 km/h 1.6 km/h 94% 0.2 mm 0 W/m2
07:17 0.7 °C -0.2 °C 991.9 hPa Calm   3.2 km/h 94% 0.2 mm 0 W/m2
07:22 0.7 °C 0 °C 991.5 hPa Calm   3.2 km/h 95% 0.2 mm 0 W/m2
07:27 0.6 °C -0.1 °C 991.5 hPa ENE 1.4 km/h 4.8 km/h 95% 0.2 mm 0 W/m2
07:32 0.6 °C -0.1 °C 991.5 hPa NE 1.4 km/h 3.2 km/h 95% 0.0 mm 0 W/m2
07:37 0.6 °C -0.1 °C 991.5 hPa East 1.4 km/h 4.8 km/h 95% 0.0 mm 0 W/m2
07:42 0.6 °C -0.1 °C 991.5 hPa East 1.4 km/h 3.2 km/h 95% 0.0 mm 0 W/m2
07:48 0.5 °C -0.2 °C 991.5 hPa East 1.4 km/h 3.2 km/h 95% 0.0 mm 0 W/m2
07:53 0.5 °C -0.2 °C 991.2 hPa Calm   1.6 km/h 95% 0.0 mm 0 W/m2
07:58 0.5 °C -0.2 °C 991.5 hPa Calm   3.2 km/h 95% 0.0 mm 0 W/m2
08:03 0.5 °C -0.2 °C 991.2 hPa ENE 1.4 km/h 3.2 km/h 95% 0.0 mm 0 W/m2
08:08 0.5 °C -0.2 °C 991.2 hPa Calm   1.6 km/h 95% 0.0 mm 0 W/m2
08:13 0.5 °C -0.2 °C 991.2 hPa Calm   3.2 km/h 95% 0.0 mm 0 W/m2
08:18 0.5 °C -0.2 °C 991.2 hPa ENE 1.4 km/h 3.2 km/h 95% 0.0 mm 0 W/m2
08:23 0.5 °C -0.2 °C 991.2 hPa Calm   3.2 km/h 95% 0.0 mm 0 W/m2
08:28 0.5 °C -0.2 °C 991.2 hPa ENE 3.2 km/h 3.2 km/h 95% 0.0 mm 0 W/m2
08:46 0.4 °C -0.2 °C 990.9 hPa NNE 1.4 km/h 3.2 km/h 96% 0.0 mm 0 W/m2
10:46 °C °C 0.0 hPa Calm     % 0.0 mm W/m2
10:57 °C °C 0.0 hPa Calm     % 0.0 mm W/m2
11:08 °C °C 0.0 hPa Calm     % 0.0 mm W/m2
11:18 °C °C 0.0 hPa Calm     % 0.0 mm W/m2
11:28 °C °C 0.0 hPa Calm     % 0.0 mm W/m2
11:39 °C °C 0.0 hPa Calm     % 0.0 mm W/m2
11:50 °C °C 0.0 hPa Calm     % 0.0 mm W/m2
12:00 °C °C 0.0 hPa Calm     % 0.0 mm W/m2
12:11 °C °C 0.0 hPa Calm     % 0.0 mm W/m2
12:22 °C °C 0.0 hPa Calm     % 0.0 mm W/m2
12:32 °C °C 0.0 hPa Calm     % 0.0 mm W/m2
12:42 °C °C 0.0 hPa Calm     % 0.0 mm W/m2
12:53 °C °C 0.0 hPa Calm     % 0.0 mm W/m2
13:03 °C °C 0.0 hPa Calm     % 0.0 mm W/m2
13:14 °C °C 0.0 hPa Calm     % 0.0 mm W/m2
13:24 °C °C 0.0 hPa Calm     % 0.0 mm W/m2
13:35 °C °C 0.0 hPa Calm     % 0.0 mm W/m2
13:46 °C °C 0.0 hPa Calm     % 0.0 mm W/m2
13:57 °C °C 0.0 hPa Calm     % 0.0 mm W/m2
14:13 °C °C 0.0 hPa Calm     % 0.0 mm W/m2
14:24 °C °C 0.0 hPa Calm     % 0.0 mm W/m2
14:34 °C °C 0.0 hPa Calm     % 0.0 mm W/m2
14:45 °C °C 0.0 hPa Calm     % 0.0 mm W/m2
14:55 °C °C 0.0 hPa Calm     % 0.0 mm W/m2
15:06 °C °C 0.0 hPa Calm     % 0.0 mm W/m2
15:16 °C °C 0.0 hPa Calm     % 0.0 mm W/m2
15:27 °C °C 0.0 hPa Calm     % 0.0 mm W/m2
15:38 °C °C 0.0 hPa Calm     % 0.0 mm W/m2
15:48 °C °C 0.0 hPa Calm     % 0.0 mm W/m2
16:09 °C °C 0.0 hPa Calm     % 0.0 mm W/m2
16:20 °C °C 0.0 hPa Calm     % 0.0 mm W/m2
16:31 °C °C 0.0 hPa Calm     % 0.0 mm W/m2
16:41 °C °C 0.0 hPa Calm     % 0.0 mm W/m2
16:52 °C °C 0.0 hPa Calm     % 0.0 mm W/m2
17:02 °C °C 0.0 hPa Calm     % 0.0 mm W/m2
17:13 °C °C 0.0 hPa Calm     % 0.0 mm W/m2
17:23 °C °C 0.0 hPa Calm     % 0.0 mm W/m2
17:34 °C °C 0.0 hPa Calm     % 0.0 mm W/m2
17:44 °C °C 0.0 hPa Calm     % 0.0 mm W/m2
17:55 °C °C 0.0 hPa Calm     % 0.0 mm W/m2
18:05 °C °C 0.0 hPa Calm     % 0.0 mm W/m2
18:16 °C °C 0.0 hPa Calm     % 0.0 mm W/m2
18:27 °C °C 0.0 hPa Calm     % 0.0 mm W/m2
18:37 °C °C 0.0 hPa Calm     % 0.0 mm W/m2
18:48 °C °C 0.0 hPa Calm     % 0.0 mm W/m2
18:59 °C °C 0.0 hPa Calm     % 0.0 mm W/m2
19:09 °C °C 0.0 hPa Calm     % 0.0 mm W/m2
19:20 °C °C 0.0 hPa Calm     % 0.0 mm W/m2
19:30 °C °C 0.0 hPa Calm     % 0.0 mm W/m2
19:40 °C °C 0.0 hPa Calm     % 0.0 mm W/m2
19:51 °C °C 0.0 hPa Calm     % 0.0 mm W/m2
20:01 °C °C 0.0 hPa Calm     % 0.0 mm W/m2
20:12 °C °C 0.0 hPa Calm     % 0.0 mm W/m2
20:23 °C °C 0.0 hPa Calm     % 0.0 mm W/m2
20:34 °C °C 0.0 hPa Calm     % 0.0 mm W/m2
20:44 °C °C 0.0 hPa Calm     % 0.0 mm W/m2
20:54 °C °C 0.0 hPa Calm     % 0.0 mm W/m2
21:05 °C °C 0.0 hPa Calm     % 0.0 mm W/m2
21:16 °C °C 0.0 hPa Calm     % 0.0 mm W/m2
21:26 °C °C 0.0 hPa Calm     % 0.0 mm W/m2
21:37 °C °C 0.0 hPa Calm     % 0.0 mm W/m2
21:47 °C °C 0.0 hPa Calm     % 0.0 mm W/m2
21:58 °C °C 0.0 hPa Calm     % 0.0 mm W/m2
22:09 °C °C 0.0 hPa Calm     % 0.0 mm W/m2
22:19 °C °C 0.0 hPa Calm     % 0.0 mm W/m2
22:29 °C °C 0.0 hPa Calm     % 0.0 mm W/m2
22:40 °C °C 0.0 hPa Calm     % 0.0 mm W/m2
22:51 °C °C 0.0 hPa Calm     % 0.0 mm W/m2
23:01 °C °C 0.0 hPa Calm     % 0.0 mm W/m2
23:12 °C °C 0.0 hPa Calm     % 0.0 mm W/m2
23:22 °C °C 0.0 hPa Calm     % 0.0 mm W/m2
23:33 °C °C 0.0 hPa Calm     % 0.0 mm W/m2
23:44 °C °C 0.0 hPa Calm     % 0.0 mm W/m2
23:54 °C °C 0.0 hPa Calm     % 0.0 mm W/m2
Juneau County Weather
Compliments of Weather Underground - 4 mb